Irving Johnson — WDB3153 — position and weather

sailwx.info

Track history (hours):
 
Tides and Currents Weather Stations Pressure Air Temp Water Temp Dewpoint Dewpoint Depression Visibility Wind Speed Wind Dir Waves Ship Positions

Irving Johnson (United States)

Ship's website: http://www.lamitopsail.org/

Owner: Los Angeles Maritime Institute, San Pedro, CA. More information available from US FCC via Universal Licensing System and Coast Guard Vessel Documentation Center.

Last reported at 2017-Jul-23 00:03 UTC. Time now 2017-Jul-23 20:45 UTC.
Position N 33°44' W 118°17'.

Type: Sailing vessel. MMSI: 369725000.

Date/timePositionNaut miles runAvg speedWind from/ knotsBaromVisibWave heightAir tempDewpointWater temp
2017-Jul-23 00:03N 33°44' W 118°17'0 0.0
2017-Jul-23 00:00N 33°44' W 118°17'0 0.0
2017-Jul-22 23:29N 33°44' W 118°17'0 0.0
2017-Jul-22 23:00N 33°44' W 118°17'1 1.7
2017-Jul-22 22:30N 33°43' W 118°16'3 5.7
2017-Jul-22 22:00N 33°41' W 118°15'0 0.6
2017-Jul-22 21:30N 33°41' W 118°14'1 1.2
2017-Jul-22 21:00N 33°40' W 118°14'2 3.2
2017-Jul-22 20:30N 33°42' W 118°15'1 2.4
2017-Jul-22 20:00N 33°43' W 118°15'1 2.0
2017-Jul-22 19:26N 33°44' W 118°16'0 0.4
2017-Jul-22 18:39N 33°44' W 118°17'0 0.0
2017-Jul-22 18:28N 33°44' W 118°17'0 0.0
2017-Jul-22 01:16N 33°44' W 118°17'0 0.0
2017-Jul-22 01:00N 33°44' W 118°17'2 4.6
2017-Jul-22 00:31N 33°43' W 118°14'3 5.5
2017-Jul-22 00:00N 33°44' W 118°11'3 5.4
2017-Jul-21 23:30N 33°44' W 118°08'1 2.7
2017-Jul-21 23:00N 33°45' W 118°07'1 2.3
2017-Jul-21 22:28N 33°44' W 118°07'0 0.8
2017-Jul-21 22:00N 33°44' W 118°07'1 0.8
2017-Jul-21 20:30N 33°45' W 118°07'2 3.6
2017-Jul-21 20:00N 33°44' W 118°08'4 6.9
2017-Jul-21 19:30N 33°43' W 118°13'3 6.1
2017-Jul-21 19:00N 33°43' W 118°16'1 1.3
2017-Jul-21 18:25N 33°44' W 118°17'0 0.0
2017-Jul-20 22:07N 33°44' W 118°17'0 0.1
2017-Jul-20 22:00N 33°44' W 118°17'0 1.0
2017-Jul-20 21:30N 33°44' W 118°16'1 1.8
2017-Jul-20 21:00N 33°43' W 118°16'1 1.5
2017-Jul-20 20:30N 33°43' W 118°16'1 1.3
2017-Jul-20 20:00N 33°44' W 118°17'0 0.0
2017-Jul-20 19:28N 33°44' W 118°17'0 0.0
2017-Jul-20 19:00N 33°44' W 118°17'1 1.5
2017-Jul-20 18:30N 33°45' W 118°16'2 3.7
2017-Jul-20 18:01N 33°43' W 118°16'0 0.6
2017-Jul-20 17:30N 33°43' W 118°16'1 2.2
2017-Jul-20 17:00N 33°44' W 118°17'0 0.0
2017-Jul-20 16:29N 33°44' W 118°17'0 0.0
2017-Jul-20 15:58N 33°44' W 118°17'0 0.0
2017-Jul-20 15:28N 33°44' W 118°17'0 0.0
2017-Jul-20 14:57N 33°44' W 118°17'0 0.0
2017-Jul-20 14:00N 33°44' W 118°17'0 0.0
2017-Jul-20 13:22N 33°44' W 118°17'0 0.0
2017-Jul-20 12:57N 33°44' W 118°17'0 0.0
2017-Jul-20 12:26N 33°44' W 118°17'0 0.0
2017-Jul-20 11:53N 33°44' W 118°17'0 0.0
2017-Jul-20 11:30N 33°44' W 118°17'0 0.0
2017-Jul-20 10:59N 33°44' W 118°17'0 0.0
2017-Jul-20 10:29N 33°44' W 118°17'0 0.0
2017-Jul-20 09:58N 33°44' W 118°17'0 0.0
2017-Jul-20 09:29N 33°44' W 118°17'0 0.0
2017-Jul-20 08:57N 33°44' W 118°17'0 0.0
2017-Jul-20 08:28N 33°44' W 118°17'0 0.0
2017-Jul-20 07:58N 33°44' W 118°17'0 0.0
2017-Jul-20 07:28N 33°44' W 118°17'0 0.0
2017-Jul-20 06:57N 33°44' W 118°17'0 0.0
2017-Jul-20 06:29N 33°44' W 118°17'0 0.0
2017-Jul-20 05:59N 33°44' W 118°17'0 0.0
2017-Jul-20 05:27N 33°44' W 118°17'0 0.0
2017-Jul-20 04:56N 33°44' W 118°17'0 0.0
2017-Jul-20 04:25N 33°44' W 118°17'0 0.0
2017-Jul-20 03:53N 33°44' W 118°17'0 0.0
2017-Jul-20 03:30N 33°44' W 118°17'0 0.0
2017-Jul-20 02:56N 33°44' W 118°17'0 0.0
2017-Jul-20 02:22N 33°44' W 118°17'0 0.0
2017-Jul-20 01:54N 33°44' W 118°17'0 0.0
2017-Jul-20 01:29N 33°44' W 118°17'0 0.0
2017-Jul-20 01:00N 33°44' W 118°17'1 1.6
2017-Jul-20 00:30N 33°43' W 118°16'0 0.4
2017-Jul-20 00:00N 33°43' W 118°16'1 1.1
2017-Jul-19 23:30N 33°44' W 118°17'2 3.4
2017-Jul-19 23:00N 33°43' W 118°15'2 3.5
2017-Jul-19 22:30N 33°44' W 118°17'0 0.2
2017-Jul-19 21:59N 33°44' W 118°17'0 0.0
2017-Jul-19 21:25N 33°44' W 118°17'0 0.0
2017-Jul-18 22:53N 33°44' W 118°17'0 0.0
2017-Jul-18 22:29N 33°44' W 118°17'0 0.0
2017-Jul-18 22:00N 33°44' W 118°17'1 1.3
2017-Jul-18 21:30N 33°43' W 118°16'1 1.0
2017-Jul-18 21:00N 33°43' W 118°16'0 0.6
2017-Jul-18 20:30N 33°43' W 118°16'1 1.5
2017-Jul-18 19:56N 33°44' W 118°17'  
2017-Jul-14 21:18N 33°42' W 118°15'2 6.4
2017-Jul-14 21:00N 33°41' W 118°16'1 2.1
2017-Jul-14 20:30N 33°42' W 118°16'0 1.0
2017-Jul-14 20:00N 33°42' W 118°15'3 5.1
2017-Jul-14 19:30N 33°39' W 118°15'1 1.5
2017-Jul-14 19:00N 33°40' W 118°15'1 2.6
2017-Jul-14 18:30N 33°41' W 118°15'1 2.7
2017-Jul-14 17:59N 33°43' W 118°15'1 2.9
2017-Jul-14 17:30N 33°44' W 118°17'0 0.0
2017-Jul-13 23:27N 33°44' W 118°17'0 0.0
2017-Jul-13 22:59N 33°44' W 118°17'0 0.0
2017-Jul-13 22:24N 33°44' W 118°17'0 0.0
2017-Jul-13 21:59N 33°44' W 118°17'0 0.0
2017-Jul-13 21:31N 33°44' W 118°17'1 2.7
2017-Jul-13 21:00N 33°43' W 118°16'2 3.0
2017-Jul-13 20:24N 33°43' W 118°13'2 2.5
2017-Jul-13 19:29N 33°43' W 118°16'1 0.1
2017-Jul-13 00:05N 33°44' W 118°17'  
Track history (hours):
 
Tides and Currents Weather Stations Pressure Air Temp Water Temp Dewpoint Dewpoint Depression Visibility Wind Speed Wind Dir Waves Ship Positions

Irving Johnson (United States)

Ship's website: http://www.lamitopsail.org/

Owner: Los Angeles Maritime Institute, San Pedro, CA. More information available from US FCC via Universal Licensing System and Coast Guard Vessel Documentation Center.

Last reported at 2017-Jul-23 00:03 UTC. Time now 2017-Jul-23 20:45 UTC.
Position N 33°44' W 118°17'.

Type: Sailing vessel. MMSI: 369725000.

Date/timePositionNaut miles runAvg speedWind from/ knotsBaromVisibWave heightAir tempDewpointWater temp
2017-Jul-23 00:03N 33°44' W 118°17'0 0.0
2017-Jul-23 00:00N 33°44' W 118°17'0 0.0
2017-Jul-22 23:29N 33°44' W 118°17'0 0.0
2017-Jul-22 23:00N 33°44' W 118°17'1 1.7
2017-Jul-22 22:30N 33°43' W 118°16'3 5.7
2017-Jul-22 22:00N 33°41' W 118°15'0 0.6
2017-Jul-22 21:30N 33°41' W 118°14'1 1.2
2017-Jul-22 21:00N 33°40' W 118°14'2 3.2
2017-Jul-22 20:30N 33°42' W 118°15'1 2.4
2017-Jul-22 20:00N 33°43' W 118°15'1 2.0
2017-Jul-22 19:26N 33°44' W 118°16'0 0.4
2017-Jul-22 18:39N 33°44' W 118°17'0 0.0
2017-Jul-22 18:28N 33°44' W 118°17'0 0.0
2017-Jul-22 01:16N 33°44' W 118°17'0 0.0
2017-Jul-22 01:00N 33°44' W 118°17'2 4.6
2017-Jul-22 00:31N 33°43' W 118°14'3 5.5
2017-Jul-22 00:00N 33°44' W 118°11'3 5.4
2017-Jul-21 23:30N 33°44' W 118°08'1 2.7
2017-Jul-21 23:00N 33°45' W 118°07'1 2.3
2017-Jul-21 22:28N 33°44' W 118°07'0 0.8
2017-Jul-21 22:00N 33°44' W 118°07'1 0.8
2017-Jul-21 20:30N 33°45' W 118°07'2 3.6
2017-Jul-21 20:00N 33°44' W 118°08'4 6.9
2017-Jul-21 19:30N 33°43' W 118°13'3 6.1
2017-Jul-21 19:00N 33°43' W 118°16'1 1.3
2017-Jul-21 18:25N 33°44' W 118°17'0 0.0
2017-Jul-20 22:07N 33°44' W 118°17'0 0.1
2017-Jul-20 22:00N 33°44' W 118°17'0 1.0
2017-Jul-20 21:30N 33°44' W 118°16'1 1.8
2017-Jul-20 21:00N 33°43' W 118°16'1 1.5
2017-Jul-20 20:30N 33°43' W 118°16'1 1.3
2017-Jul-20 20:00N 33°44' W 118°17'0 0.0
2017-Jul-20 19:28N 33°44' W 118°17'0 0.0
2017-Jul-20 19:00N 33°44' W 118°17'1 1.5
2017-Jul-20 18:30N 33°45' W 118°16'2 3.7
2017-Jul-20 18:01N 33°43' W 118°16'0 0.6
2017-Jul-20 17:30N 33°43' W 118°16'1 2.2
2017-Jul-20 17:00N 33°44' W 118°17'0 0.0
2017-Jul-20 16:29N 33°44' W 118°17'0 0.0
2017-Jul-20 15:58N 33°44' W 118°17'0 0.0
2017-Jul-20 15:28N 33°44' W 118°17'0 0.0
2017-Jul-20 14:57N 33°44' W 118°17'0 0.0
2017-Jul-20 14:00N 33°44' W 118°17'0 0.0
2017-Jul-20 13:22N 33°44' W 118°17'0 0.0
2017-Jul-20 12:57N 33°44' W 118°17'0 0.0
2017-Jul-20 12:26N 33°44' W 118°17'0 0.0
2017-Jul-20 11:53N 33°44' W 118°17'0 0.0
2017-Jul-20 11:30N 33°44' W 118°17'0 0.0
2017-Jul-20 10:59N 33°44' W 118°17'0 0.0
2017-Jul-20 10:29N 33°44' W 118°17'0 0.0
2017-Jul-20 09:58N 33°44' W 118°17'0 0.0
2017-Jul-20 09:29N 33°44' W 118°17'0 0.0
2017-Jul-20 08:57N 33°44' W 118°17'0 0.0
2017-Jul-20 08:28N 33°44' W 118°17'0 0.0
2017-Jul-20 07:58N 33°44' W 118°17'0 0.0
2017-Jul-20 07:28N 33°44' W 118°17'0 0.0
2017-Jul-20 06:57N 33°44' W 118°17'0 0.0
2017-Jul-20 06:29N 33°44' W 118°17'0 0.0
2017-Jul-20 05:59N 33°44' W 118°17'0 0.0
2017-Jul-20 05:27N 33°44' W 118°17'0 0.0
2017-Jul-20 04:56N 33°44' W 118°17'0 0.0
2017-Jul-20 04:25N 33°44' W 118°17'0 0.0
2017-Jul-20 03:53N 33°44' W 118°17'0 0.0
2017-Jul-20 03:30N 33°44' W 118°17'0 0.0
2017-Jul-20 02:56N 33°44' W 118°17'0 0.0
2017-Jul-20 02:22N 33°44' W 118°17'0 0.0
2017-Jul-20 01:54N 33°44' W 118°17'0 0.0
2017-Jul-20 01:29N 33°44' W 118°17'0 0.0
2017-Jul-20 01:00N 33°44' W 118°17'1 1.6
2017-Jul-20 00:30N 33°43' W 118°16'0 0.4
2017-Jul-20 00:00N 33°43' W 118°16'1 1.1
2017-Jul-19 23:30N 33°44' W 118°17'2 3.4
2017-Jul-19 23:00N 33°43' W 118°15'2 3.5
2017-Jul-19 22:30N 33°44' W 118°17'0 0.2
2017-Jul-19 21:59N 33°44' W 118°17'0 0.0
2017-Jul-19 21:25N 33°44' W 118°17'0 0.0
2017-Jul-18 22:53N 33°44' W 118°17'0 0.0
2017-Jul-18 22:29N 33°44' W 118°17'0 0.0
2017-Jul-18 22:00N 33°44' W 118°17'1 1.3
2017-Jul-18 21:30N 33°43' W 118°16'1 1.0
2017-Jul-18 21:00N 33°43' W 118°16'0 0.6
2017-Jul-18 20:30N 33°43' W 118°16'1 1.5
2017-Jul-18 19:56N 33°44' W 118°17'  
2017-Jul-14 21:18N 33°42' W 118°15'2 6.4
2017-Jul-14 21:00N 33°41' W 118°16'1 2.1
2017-Jul-14 20:30N 33°42' W 118°16'0 1.0
2017-Jul-14 20:00N 33°42' W 118°15'3 5.1
2017-Jul-14 19:30N 33°39' W 118°15'1 1.5
2017-Jul-14 19:00N 33°40' W 118°15'1 2.6
2017-Jul-14 18:30N 33°41' W 118°15'1 2.7
2017-Jul-14 17:59N 33°43' W 118°15'1 2.9
2017-Jul-14 17:30N 33°44' W 118°17'0 0.0
2017-Jul-13 23:27N 33°44' W 118°17'0 0.0
2017-Jul-13 22:59N 33°44' W 118°17'0 0.0
2017-Jul-13 22:24N 33°44' W 118°17'0 0.0
2017-Jul-13 21:59N 33°44' W 118°17'0 0.0
2017-Jul-13 21:31N 33°44' W 118°17'1 2.7
2017-Jul-13 21:00N 33°43' W 118°16'2 3.0
2017-Jul-13 20:24N 33°43' W 118°13'2 2.5
2017-Jul-13 19:29N 33°43' W 118°16'1 0.1
2017-Jul-13 00:05N 33°44' W 118°17'  

Dump ship's entire track history